Terminal Aerodrome Forecast
Issued by NWS

Home | Current Version | Previous Version | Text Only | Print | Product List | Glossary On
Versions: 1 2 3 4 5 6 7 8 9 10 11 12 13 14 15 16 17 18 19 20 21 22 23 24 25 26 27 28 29 30 31 32 33 34 35
036
FTUS41 KBOX 101130
TAFBED
TAF
KBED 101130Z 1012/1112 00000KT P6SM OVC025
     FM101400 00000KT P6SM VCSH OVC020
     FM101800 23004KT P6SM VCSH OVC008
     FM102100 23005KT P6SM OVC010
     FM102300 25006KT P6SM BKN040=

USA.gov is the U.S. government's official web portal to all federal, state and local government web resources and services.